Time;durP1;ratioP1;P1;durP2;ratioP2;P2;SDS_P1;SDS_P2;PMS_P1;PMS_P2;Temp;Humidity;BMP_temperature;BMP_pressure;BME280_temperature;BME280_humidity;BME280_pressure;Samples;Min_cycle;Max_cycle;Signal;HPM_P1;HPM_P2
2023/11/08 15:54:57;;;;;;;;;3.00;2.50;;;;;;;;5105180;27;13404;-71
2023/11/08 15:57:22;;;;;;;;;1.00;1.00;;;;;;;;5106125;28;11399;-71
2023/11/08 15:59:47;;;;;;;;;1.00;1.00;;;;;;;;5106061;28;8836;-71
2023/11/08 16:02:18;;;;;;;;;4.00;1.00;;;;;;;;5106049;28;8800;-72
2023/11/08 16:04:43;;;;;;;;;1.75;1.75;;;;;;;;5107243;28;8898;-71
2023/11/08 16:07:09;;;;;;;;;1.25;1.25;;;;;;;;5105578;28;11031;-74
2023/11/08 16:09:35;;;;;;;;;4.50;4.50;;;;;;;;5107226;28;8779;-73
2023/11/08 16:12:00;;;;;;;;;3.50;2.00;;;;;;;;5107374;28;8788;-74
2023/11/08 16:14:25;;;;;;;;;2.00;1.00;;;;;;;;5105657;28;8815;-73
2023/11/08 16:16:54;;;;;;;;;2.00;2.00;;;;;;;;5107173;28;8826;-70
2023/11/08 16:19:19;;;;;;;;;2.50;1.25;;;;;;;;5106911;28;9642;-72
2023/11/08 16:21:51;;;;;;;;;1.50;1.00;;;;;;;;5106813;28;11066;-71
2023/11/08 16:24:16;;;;;;;;;4.50;1.50;;;;;;;;5109836;28;8788;-70
2023/11/08 16:26:44;;;;;;;;;0.75;0.75;;;;;;;;5106534;28;11170;-70
2023/11/08 16:29:10;;;;;;;;;1.50;1.50;;;;;;;;5105752;28;8820;-84
2023/11/08 16:31:38;;;;;;;;;1.00;1.00;;;;;;;;5105385;28;11131;-78
2023/11/08 16:34:04;;;;;;;;;0.00;0.00;;;;;;;;5106383;28;8850;-77
2023/11/08 16:36:30;;;;;;;;;1.00;1.00;;;;;;;;5107161;28;10886;-87
2023/11/08 16:38:55;;;;;;;;;1.00;1.00;;;;;;;;5106780;28;8792;-90
2023/11/08 16:41:21;;;;;;;;;1.50;1.25;;;;;;;;5121350;28;8796;-91
2023/11/08 16:43:46;;;;;;;;;3.00;1.00;;;;;;;;5115661;28;8807;-85
2023/11/08 16:46:15;;;;;;;;;1.00;1.00;;;;;;;;5110847;28;10989;-86
2023/11/08 16:48:41;;;;;;;;;1.25;1.25;;;;;;;;5107536;28;8819;-78
2023/11/08 16:51:06;;;;;;;;;3.00;2.00;;;;;;;;5107123;28;11856;-80
2023/11/08 16:53:32;;;;;;;;;4.00;3.00;;;;;;;;5106442;28;8792;-75
2023/11/08 16:55:57;;;;;;;;;4.00;4.00;;;;;;;;5105975;28;8842;-76
2023/11/08 16:58:23;;;;;;;;;4.25;4.25;;;;;;;;5106211;28;8768;-76
2023/11/08 17:00:48;;;;;;;;;8.50;6.50;;;;;;;;5106081;28;8842;-76
2023/11/08 17:03:14;;;;;;;;;5.00;4.25;;;;;;;;5105790;28;8807;-74
2023/11/08 17:05:40;;;;;;;;;10.00;6.00;;;;;;;;5096089;28;8772;-76
2023/11/08 17:08:05;;;;;;;;;11.00;7.50;;;;;;;;5092537;28;11453;-77
2023/11/08 17:10:33;;;;;;;;;8.00;6.25;;;;;;;;5092080;28;8884;-77
2023/11/08 17:12:59;;;;;;;;;4.50;4.25;;;;;;;;5092455;28;8772;-77
2023/11/08 17:15:24;;;;;;;;;6.25;6.00;;;;;;;;5096288;28;11021;-77
2023/11/08 17:17:49;;;;;;;;;10.25;7.00;;;;;;;;5091691;28;8919;-75
2023/11/08 17:20:15;;;;;;;;;10.50;9.25;;;;;;;;5091796;28;8840;-74
2023/11/08 17:22:41;;;;;;;;;7.75;7.00;;;;;;;;5091839;28;8857;-71
2023/11/08 17:25:09;;;;;;;;;7.75;7.25;;;;;;;;5091634;28;11243;-73
2023/11/08 17:27:35;;;;;;;;;9.75;6.50;;;;;;;;5092636;28;8798;-75
2023/11/08 17:30:02;;;;;;;;;8.00;8.00;;;;;;;;5090815;28;11417;-75
2023/11/08 17:32:27;;;;;;;;;9.75;7.00;;;;;;;;5092005;28;11365;-77
2023/11/08 17:34:58;;;;;;;;;9.75;7.75;;;;;;;;5090844;28;11425;-76
2023/11/08 17:37:25;;;;;;;;;6.00;3.25;;;;;;;;5090999;28;8834;-82
2023/11/08 17:39:51;;;;;;;;;5.50;5.00;;;;;;;;5091822;28;11818;-84
2023/11/08 17:42:17;;;;;;;;;10.75;6.00;;;;;;;;5091755;28;11375;-80
2023/11/08 17:44:43;;;;;;;;;7.00;6.75;;;;;;;;5091677;28;8800;-75
2023/11/08 17:47:09;;;;;;;;;11.00;9.25;;;;;;;;5103569;28;11405;-76
2023/11/08 17:49:34;;;;;;;;;12.25;10.00;;;;;;;;5092434;28;9537;-81
2023/11/08 17:52:04;;;;;;;;;14.00;9.50;;;;;;;;5090872;28;11638;-78
2023/11/08 17:54:30;;;;;;;;;9.75;7.50;;;;;;;;5094823;28;8796;-77
2023/11/08 17:56:57;;;;;;;;;6.50;6.50;;;;;;;;5094171;28;11516;-75
2023/11/08 17:59:22;;;;;;;;;7.00;7.00;;;;;;;;5090985;28;11396;-75
2023/11/08 18:01:48;;;;;;;;;9.00;7.00;;;;;;;;5091759;28;11411;-76
2023/11/08 18:04:13;;;;;;;;;6.00;2.50;;;;;;;;5091394;28;8922;-75
2023/11/08 18:06:39;;;;;;;;;7.00;4.00;;;;;;;;5107018;28;8810;-76
2023/11/08 18:09:14;;;;;;;;;7.50;7.50;;;;;;;;5112133;28;8897;-76
2023/11/08 18:11:40;;;;;;;;;40.00;37.75;;;;;;;;5113043;28;8832;-76
2023/11/08 18:14:05;;;;;;;;;17.25;15.00;;;;;;;;5112108;28;11496;-74
2023/11/08 18:16:30;;;;;;;;;10.50;4.25;;;;;;;;5107407;28;8828;-77
2023/11/08 18:18:57;;;;;;;;;10.00;7.25;;;;;;;;5091675;28;8804;-75
2023/11/08 18:21:22;;;;;;;;;11.25;11.00;;;;;;;;5091513;28;8926;-76
2023/11/08 18:23:51;;;;;;;;;14.25;8.25;;;;;;;;5090553;28;12269;-73
2023/11/08 18:26:17;;;;;;;;;11.25;9.00;;;;;;;;5092241;28;8792;-76
2023/11/08 18:28:42;;;;;;;;;15.00;10.50;;;;;;;;5092303;28;11569;-75
2023/11/08 18:31:07;;;;;;;;;10.50;8.75;;;;;;;;5091514;28;8796;-72
2023/11/08 18:33:33;;;;;;;;;16.00;11.00;;;;;;;;5089753;28;8816;-78
2023/11/08 18:35:58;;;;;;;;;13.50;9.00;;;;;;;;5090619;28;8816;-76
2023/11/08 18:38:23;;;;;;;;;11.25;10.00;;;;;;;;5091218;28;8834;-80
2023/11/08 18:40:54;;;;;;;;;16.50;12.00;;;;;;;;5092261;28;8791;-85
2023/11/08 18:43:24;;;;;;;;;15.25;13.00;;;;;;;;5093287;28;8832;-77
2023/11/08 18:45:50;;;;;;;;;16.25;12.00;;;;;;;;5090327;28;11459;-77
2023/11/08 18:48:15;;;;;;;;;13.00;12.50;;;;;;;;5091146;28;11439;-78
2023/11/08 18:50:41;;;;;;;;;15.00;13.00;;;;;;;;5090896;28;8800;-75
2023/11/08 18:53:06;;;;;;;;;17.25;11.50;;;;;;;;5090424;28;8822;-84
2023/11/08 18:55:31;;;;;;;;;18.50;12.75;;;;;;;;5090632;28;8838;-76
2023/11/08 18:58:04;;;;;;;;;13.00;11.00;;;;;;;;5090903;28;9602;-79
2023/11/08 19:00:30;;;;;;;;;15.50;12.00;;;;;;;;5089398;28;9554;-76
2023/11/08 19:02:55;;;;;;;;;15.25;12.50;;;;;;;;5088089;28;11499;-74
2023/11/08 19:05:21;;;;;;;;;16.25;15.00;;;;;;;;5090044;28;8835;-74
2023/11/08 19:07:49;;;;;;;;;13.25;12.50;;;;;;;;5090736;28;8784;-77
2023/11/08 19:10:15;;;;;;;;;15.50;12.25;;;;;;;;5090731;28;8791;-75
2023/11/08 19:12:41;;;;;;;;;15.75;15.25;;;;;;;;5090257;28;11541;-75
2023/11/08 19:15:07;;;;;;;;;15.00;13.25;;;;;;;;5089019;28;8823;-77
2023/11/08 19:17:32;;;;;;;;;14.50;11.50;;;;;;;;5089779;28;11422;-79
2023/11/08 19:19:57;;;;;;;;;19.00;13.25;;;;;;;;5088929;28;8882;-80
2023/11/08 19:22:24;;;;;;;;;16.50;13.50;;;;;;;;5090239;28;8783;-75
2023/11/08 19:24:49;;;;;;;;;10.50;9.00;;;;;;;;5081495;28;8847;-77
2023/11/08 19:27:14;;;;;;;;;12.00;12.00;;;;;;;;5088402;28;11489;-75
2023/11/08 19:29:40;;;;;;;;;13.00;12.00;;;;;;;;5089867;28;8803;-72
2023/11/08 19:32:05;;;;;;;;;18.25;14.75;;;;;;;;5090094;28;8776;-79
2023/11/08 19:34:31;;;;;;;;;14.25;14.25;;;;;;;;5091634;28;8796;-78
2023/11/08 19:36:56;;;;;;;;;22.00;15.25;;;;;;;;5094741;28;8888;-83
2023/11/08 19:39:22;;;;;;;;;15.25;11.50;;;;;;;;5093360;28;8981;-78
2023/11/08 19:41:47;;;;;;;;;14.00;12.75;;;;;;;;5093746;28;8808;-80
2023/11/08 19:44:13;;;;;;;;;15.00;12.50;;;;;;;;5091941;28;8908;-76
2023/11/08 19:46:38;;;;;;;;;16.75;14.50;;;;;;;;5089069;28;8929;-75
2023/11/08 19:49:05;;;;;;;;;23.25;15.25;;;;;;;;5089453;28;8804;-73
2023/11/08 19:51:30;;;;;;;;;18.25;15.75;;;;;;;;5090114;28;9588;-73
2023/11/08 19:53:56;;;;;;;;;16.25;14.75;;;;;;;;5088198;28;11534;-73
2023/11/08 19:56:21;;;;;;;;;18.25;17.50;;;;;;;;5089062;28;8831;-70
2023/11/08 19:58:46;;;;;;;;;16.75;15.75;;;;;;;;5089295;28;8804;-77
2023/11/08 20:01:12;;;;;;;;;14.50;14.25;;;;;;;;5090807;28;8804;-73
2023/11/08 20:03:41;;;;;;;;;15.50;14.25;;;;;;;;5096913;28;8955;-75
2023/11/08 20:06:10;;;;;;;;;14.50;12.75;;;;;;;;5089340;28;8919;-74
2023/11/08 20:08:35;;;;;;;;;13.00;11.75;;;;;;;;5088185;28;11514;-73
2023/11/08 20:11:00;;;;;;;;;12.25;12.00;;;;;;;;5088409;28;12208;-75
2023/11/08 20:13:26;;;;;;;;;15.75;14.50;;;;;;;;5089917;28;8812;-72
2023/11/08 20:15:51;;;;;;;;;15.00;14.75;;;;;;;;5089487;28;8939;-73
2023/11/08 20:18:16;;;;;;;;;14.50;14.00;;;;;;;;5088085;28;9522;-73
2023/11/08 20:20:51;;;;;;;;;18.50;16.50;;;;;;;;5089626;28;8872;-76
2023/11/08 20:23:16;;;;;;;;;15.25;13.50;;;;;;;;5088855;28;8839;-78
2023/11/08 20:25:42;;;;;;;;;13.50;11.75;;;;;;;;5088033;28;11608;-78
2023/11/08 20:28:07;;;;;;;;;19.25;14.25;;;;;;;;5089799;28;8796;-77
2023/11/08 20:30:33;;;;;;;;;15.25;14.00;;;;;;;;5089088;28;8780;-82
2023/11/08 20:32:58;;;;;;;;;16.00;13.25;;;;;;;;5090327;28;8795;-79
2023/11/08 20:35:23;;;;;;;;;13.50;11.75;;;;;;;;5088167;28;8780;-78
2023/11/08 20:37:58;;;;;;;;;12.00;11.50;;;;;;;;5089275;28;8917;-80
2023/11/08 20:40:24;;;;;;;;;13.50;10.75;;;;;;;;5091183;28;8811;-81
2023/11/08 20:42:55;;;;;;;;;14.00;12.25;;;;;;;;5089979;28;11495;-79
2023/11/08 20:45:21;;;;;;;;;15.25;14.75;;;;;;;;5095376;28;8828;-78
2023/11/08 20:47:46;;;;;;;;;14.25;12.00;;;;;;;;5092944;28;11520;-78
2023/11/08 20:50:12;;;;;;;;;18.25;15.75;;;;;;;;5093335;28;8888;-77
2023/11/08 20:52:38;;;;;;;;;19.25;16.00;;;;;;;;5091443;28;8889;-83
2023/11/08 20:55:06;;;;;;;;;15.25;15.00;;;;;;;;5092292;28;8832;-79
2023/11/08 20:57:32;;;;;;;;;18.75;16.25;;;;;;;;5092599;28;11623;-75
2023/11/08 20:59:57;;;;;;;;;18.00;17.25;;;;;;;;5092763;28;12314;-82
2023/11/08 21:02:23;;;;;;;;;14.50;13.50;;;;;;;;5093334;28;8788;-76
2023/11/08 21:04:50;;;;;;;;;16.00;15.00;;;;;;;;5090512;28;8866;-79
2023/11/08 21:07:18;;;;;;;;;15.00;14.50;;;;;;;;5092131;28;8799;-80
2023/11/08 21:09:51;;;;;;;;;17.25;14.75;;;;;;;;5092958;28;11515;-80
2023/11/08 21:12:16;;;;;;;;;22.25;19.25;;;;;;;;5093037;28;11481;-80
2023/11/08 21:14:45;;;;;;;;;19.00;17.75;;;;;;;;5092921;28;11507;-78
2023/11/08 21:17:13;;;;;;;;;23.75;20.00;;;;;;;;5092334;28;8827;-80
2023/11/08 21:19:39;;;;;;;;;22.25;19.50;;;;;;;;5091451;28;11535;-78
2023/11/08 21:22:04;;;;;;;;;27.25;21.75;;;;;;;;5092308;28;11614;-80
2023/11/08 21:24:32;;;;;;;;;24.00;17.75;;;;;;;;5092093;28;8816;-78
2023/11/08 21:26:58;;;;;;;;;28.25;25.25;;;;;;;;5090447;28;8859;-78
2023/11/08 21:29:27;;;;;;;;;17.75;16.00;;;;;;;;5091179;28;11516;-78
2023/11/08 21:31:53;;;;;;;;;20.25;18.50;;;;;;;;5091207;28;9076;-76
2023/11/08 21:34:18;;;;;;;;;23.25;20.25;;;;;;;;5092405;28;11797;-76
2023/11/08 21:36:46;;;;;;;;;18.75;17.00;;;;;;;;5091433;28;8828;-79
2023/11/08 21:39:16;;;;;;;;;22.25;19.00;;;;;;;;5092545;28;8906;-76
2023/11/08 21:41:46;;;;;;;;;15.00;14.75;;;;;;;;5092267;28;11492;-76
2023/11/08 21:44:14;;;;;;;;;21.25;18.75;;;;;;;;5090291;28;11523;-75
2023/11/08 21:46:42;;;;;;;;;22.75;21.25;;;;;;;;5088338;28;11543;-76
2023/11/08 21:49:17;;;;;;;;;13.50;13.00;;;;;;;;5090845;28;11525;-74
2023/11/08 21:51:43;;;;;;;;;19.75;17.75;;;;;;;;5091678;28;11478;-74
2023/11/08 21:54:08;;;;;;;;;17.25;17.25;;;;;;;;5090410;28;11674;-75
2023/11/08 21:56:36;;;;;;;;;20.50;16.25;;;;;;;;5089831;28;8843;-71
2023/11/08 21:59:02;;;;;;;;;16.75;16.75;;;;;;;;5090227;28;8795;-73
2023/11/08 22:01:28;;;;;;;;;15.50;14.50;;;;;;;;5091923;28;11651;-75
2023/11/08 22:03:54;;;;;;;;;18.75;17.00;;;;;;;;5089862;28;11662;-75
2023/11/08 22:06:19;;;;;;;;;17.75;17.00;;;;;;;;5093158;28;8788;-74
2023/11/08 22:08:47;;;;;;;;;14.75;13.50;;;;;;;;5091819;28;8926;-74
2023/11/08 22:11:13;;;;;;;;;18.00;15.25;;;;;;;;5086205;28;8806;-74
2023/11/08 22:13:39;;;;;;;;;19.50;14.75;;;;;;;;5080650;28;11551;-74
2023/11/08 22:16:05;;;;;;;;;12.00;12.00;;;;;;;;5070231;28;8811;-74
2023/11/08 22:18:32;;;;;;;;;14.00;13.75;;;;;;;;5091223;28;11511;-74
2023/11/08 22:20:57;;;;;;;;;20.50;18.25;;;;;;;;5091521;28;8764;-74
2023/11/08 22:23:22;;;;;;;;;21.00;17.50;;;;;;;;5091090;28;11557;-74
2023/11/08 22:25:48;;;;;;;;;24.00;19.25;;;;;;;;5089369;28;8808;-74
2023/11/08 22:28:13;;;;;;;;;18.50;16.50;;;;;;;;5081087;28;8788;-74
2023/11/08 22:35:49;;;;;;;;;22.50;19.00;;;;;;;;5410418;22;12246;-70
2023/11/08 22:38:14;;;;;;;;;24.75;18.50;;;;;;;;5045062;28;11572;-78
2023/11/08 22:40:39;;;;;;;;;15.25;13.00;;;;;;;;5029572;28;8953;-77
2023/11/08 22:43:07;;;;;;;;;16.75;15.00;;;;;;;;5040009;28;8953;-74
2023/11/08 22:45:33;;;;;;;;;20.00;17.00;;;;;;;;5045269;28;8790;-76
2023/11/08 22:47:58;;;;;;;;;13.75;13.00;;;;;;;;5040034;28;11638;-75
2023/11/08 22:50:26;;;;;;;;;13.50;11.25;;;;;;;;5039868;28;9624;-77
2023/11/08 22:52:56;;;;;;;;;12.75;12.50;;;;;;;;5041067;28;8796;-75
2023/11/08 22:55:24;;;;;;;;;14.00;10.50;;;;;;;;5022426;28;11529;-87
2023/11/08 22:57:50;;;;;;;;;7.00;5.75;;;;;;;;5021156;28;11635;-82
2023/11/08 23:00:17;;;;;;;;;13.50;12.00;;;;;;;;5040786;28;11571;-74
2023/11/08 23:02:43;;;;;;;;;16.75;12.50;;;;;;;;5039656;28;8802;-77
2023/11/08 23:05:11;;;;;;;;;12.00;9.00;;;;;;;;5038964;28;12072;-75
2023/11/08 23:07:37;;;;;;;;;11.75;10.00;;;;;;;;5027351;28;8808;-76
2023/11/08 23:10:02;;;;;;;;;15.75;13.00;;;;;;;;5040147;28;11607;-78
2023/11/08 23:12:27;;;;;;;;;10.00;9.25;;;;;;;;5038758;28;8826;-78
2023/11/08 23:14:53;;;;;;;;;13.50;13.50;;;;;;;;5023520;28;8857;-75
2023/11/08 23:17:18;;;;;;;;;16.50;13.75;;;;;;;;5022325;28;8820;-77
2023/11/08 23:19:43;;;;;;;;;15.25;9.75;;;;;;;;5041801;28;8945;-78
2023/11/08 23:22:09;;;;;;;;;13.50;13.25;;;;;;;;5039390;28;8832;-78
2023/11/08 23:24:35;;;;;;;;;15.50;10.75;;;;;;;;5041086;28;8909;-79
2023/11/08 23:27:00;;;;;;;;;13.00;11.25;;;;;;;;5040656;28;8952;-78
2023/11/08 23:29:26;;;;;;;;;12.75;10.00;;;;;;;;5039321;28;11517;-76
2023/11/08 23:31:54;;;;;;;;;14.00;9.00;;;;;;;;5040998;28;8788;-82
2023/11/08 23:34:19;;;;;;;;;12.50;10.75;;;;;;;;5036296;28;8838;-79
